Time;durP1;ratioP1;P1;durP2;ratioP2;P2;SDS_P1;SDS_P2;PMS_P1;PMS_P2;Temp;Humidity;BMP_temperature;BMP_pressure;BME280_temperature;BME280_humidity;BME280_pressure;Samples;Min_cycle;Max_cycle;Signal;HPM_P1;HPM_P2
2021/12/14 00:00:12;;;;;;;20.55;10.93;;;;;;;6.28;100.00;101203.25;5094994;28;20480;-77
2021/12/14 00:02:42;;;;;;;18.75;11.18;;;;;;;6.28;100.00;101203.25;5092993;28;20027;-77
2021/12/14 00:05:08;;;;;;;21.85;11.50;;;;;;;6.28;100.00;101203.25;5094155;28;20069;-77
2021/12/14 00:07:34;;;;;;;20.98;11.18;;;;;;;6.26;100.00;101205.03;5093619;28;20035;-77
2021/12/14 00:10:12;;;;;;;21.05;11.35;;;;;;;6.28;100.00;101203.25;5096746;28;20032;-77
2021/12/14 00:12:53;;;;;;;25.30;11.95;;;;;;;6.32;100.00;101197.06;5094393;28;20073;-77
2021/12/14 00:15:19;;;;;;;18.05;11.63;;;;;;;6.26;100.00;101194.44;5095941;28;20429;-76
2021/12/14 00:17:52;;;;;;;24.10;12.93;;;;;;;6.28;100.00;101205.91;5094448;28;20027;-77
2021/12/14 00:20:23;;;;;;;22.83;12.20;;;;;;;6.23;100.00;101200.59;5094118;28;20077;-77
2021/12/14 00:25:24;;;;;;;24.75;12.13;;;;;;;6.25;100.00;101203.25;5094629;28;20024;-77
2021/12/14 00:27:49;;;;;;;21.45;11.85;;;;;;;6.27;100.00;101193.53;5092891;28;20062;-77
2021/12/14 00:30:15;;;;;;;22.35;11.77;;;;;;;6.19;100.00;101196.16;5094040;28;20051;-77
2021/12/14 00:32:40;;;;;;;20.90;11.57;;;;;;;6.25;100.00;101193.53;5094219;28;20019;-77
2021/12/14 00:35:13;;;;;;;19.85;11.18;;;;;;;6.21;100.00;101178.47;5093665;28;20012;-77
2021/12/14 00:37:42;;;;;;;19.52;11.00;;;;;;;6.28;100.00;101179.41;5094003;28;20128;-77
2021/12/14 00:40:31;;;;;;;21.23;11.30;;;;;;;6.19;100.00;101179.34;5093838;28;20403;-77
2021/12/14 00:42:58;;;;;;;22.77;10.85;;;;;;;6.21;100.00;101172.31;5093823;28;20024;-77
2021/12/14 00:45:25;;;;;;;18.77;11.30;;;;;;;6.24;100.00;101182.91;5094088;28;20144;-77
2021/12/14 00:47:51;;;;;;;18.25;10.23;;;;;;;6.29;100.00;101180.28;5096863;28;20376;-77
2021/12/14 00:50:20;;;;;;;19.13;10.45;;;;;;;6.18;100.00;101181.13;5094404;28;20548;-77
2021/12/14 00:52:47;;;;;;;19.10;10.88;;;;;;;6.18;100.00;101181.13;5095242;28;20027;-77
2021/12/14 00:55:22;;;;;;;20.85;10.60;;;;;;;6.22;100.00;101172.31;5094279;28;20024;-77
2021/12/14 00:57:48;;;;;;;20.38;10.82;;;;;;;6.19;100.00;101182.00;5093991;28;20081;-77
2021/12/14 01:00:17;;;;;;;23.33;11.35;;;;;;;6.21;100.00;101190.88;5093792;28;20023;-77
2021/12/14 01:02:43;;;;;;;22.05;11.55;;;;;;;6.21;100.00;101190.88;5093447;28;20365;-77
2021/12/14 01:05:14;;;;;;;20.80;11.60;;;;;;;6.20;100.00;101197.03;5093552;28;20427;-77
2021/12/14 01:07:40;;;;;;;18.05;10.27;;;;;;;6.35;100.00;101204.16;5092292;28;20020;-77
2021/12/14 01:10:25;;;;;;;18.02;10.55;;;;;;;6.24;100.00;101201.47;5092162;28;20024;-77
2021/12/14 01:12:55;;;;;;;20.17;11.50;;;;;;;6.21;100.00;101202.34;5093432;28;20016;-77
2021/12/14 01:15:30;;;;;;;20.40;9.95;;;;;;;6.20;100.00;101189.09;5092030;28;20434;-77
2021/12/14 01:18:29;;;;;;;17.85;9.93;;;;;;;6.12;100.00;101187.31;5096265;28;20024;-77
2021/12/14 01:21:12;;;;;;;19.25;11.40;;;;;;;6.24;100.00;101185.56;5097967;28;20055;-77
2021/12/14 01:23:38;;;;;;;18.35;10.52;;;;;;;6.17;100.00;101175.81;5097790;28;20031;-77
2021/12/14 01:26:10;;;;;;;23.15;11.05;;;;;;;6.22;100.00;101177.59;5099941;28;20087;-77
2021/12/14 01:28:36;;;;;;;18.83;11.02;;;;;;;6.20;100.00;101165.22;5097872;28;20472;-77
2021/12/14 01:31:15;;;;;;;20.70;11.70;;;;;;;6.11;100.00;101174.03;5097901;28;20032;-77
2021/12/14 01:33:45;;;;;;;19.92;10.70;;;;;;;6.11;100.00;101180.22;5097681;28;20027;-76
2021/12/14 01:36:24;;;;;;;20.55;10.80;;;;;;;6.16;100.00;101174.91;5097295;28;20084;-77
2021/12/14 01:39:20;;;;;;;18.02;10.77;;;;;;;6.14;100.00;101179.34;5095941;28;20028;-77
2021/12/14 01:41:56;;;;;;;23.42;11.88;;;;;;;6.08;100.00;101182.00;5097082;28;20387;-77
2021/12/14 01:44:26;;;;;;;22.40;10.80;;;;;;;6.08;100.00;101179.34;5097152;28;20372;-77
2021/12/14 01:46:56;;;;;;;20.35;11.10;;;;;;;6.04;100.00;101179.28;5097293;28;20031;-77
2021/12/14 01:49:25;;;;;;;18.20;10.80;;;;;;;6.03;100.00;101177.50;5097279;28;20023;-77
2021/12/14 01:51:53;;;;;;;21.42;11.02;;;;;;;6.05;100.00;101172.22;5097583;28;20081;-76
2021/12/14 01:54:23;;;;;;;21.45;11.15;;;;;;;6.08;100.00;101180.19;5097056;28;20028;-77
2021/12/14 01:56:51;;;;;;;21.40;12.10;;;;;;;6.02;100.00;101180.16;5096600;28;20540;-77
2021/12/14 01:59:33;;;;;;;22.35;11.98;;;;;;;6.06;100.00;101179.28;5097101;28;20024;-77
2021/12/14 02:04:46;;;;;;;21.40;12.27;;;;;;;6.11;100.00;101177.56;5099652;28;20507;-77
2021/12/14 02:07:12;;;;;;;23.60;12.38;;;;;;;6.04;100.00;101171.34;5097295;28;20102;-77
2021/12/14 02:09:39;;;;;;;23.75;12.60;;;;;;;6.10;100.00;101161.66;5095628;28;20369;-77
2021/12/14 02:12:18;;;;;;;21.17;11.73;;;;;;;6.02;100.00;101149.25;5097154;28;20077;-77
2021/12/14 02:14:45;;;;;;;23.17;12.18;;;;;;;5.98;100.00;101141.28;5095676;28;20484;-77
2021/12/14 02:17:14;;;;;;;21.45;12.50;;;;;;;5.97;100.00;101139.50;5096577;28;20468;-77
2021/12/14 02:19:40;;;;;;;23.73;13.00;;;;;;;5.98;100.00;101130.69;5096442;28;20036;-77
2021/12/14 02:22:08;;;;;;;23.25;13.02;;;;;;;5.93;100.00;101118.28;5096828;28;20103;-77
2021/12/14 02:24:35;;;;;;;27.15;12.43;;;;;;;5.93;100.00;101112.97;5095033;28;20450;-77
2021/12/14 02:27:00;;;;;;;27.45;13.27;;;;;;;5.92;100.00;101100.63;5095208;28;20392;-77
2021/12/14 02:29:34;;;;;;;24.90;12.90;;;;;;;5.90;100.00;101099.69;5096258;28;20020;-77
2021/12/14 02:32:04;;;;;;;;;;;;;;;5.91;100.00;101096.19;5096674;28;20095;-77
2021/12/14 02:34:29;;;;;;;23.65;12.30;;;;;;;5.91;100.00;101096.19;5096256;28;19912;-77
2021/12/14 02:36:57;;;;;;;23.65;12.27;;;;;;;5.99;100.00;101082.94;5096070;28;20038;-77
2021/12/14 02:42:03;;;;;;;22.25;12.10;;;;;;;5.94;100.00;101084.69;5098906;28;20104;-77
2021/12/14 02:44:29;;;;;;;23.67;12.73;;;;;;;5.93;100.00;101070.56;5096159;28;20392;-77
2021/12/14 02:47:03;;;;;;;21.15;11.50;;;;;;;5.90;100.00;101070.53;5096404;28;20020;-77
2021/12/14 02:49:32;;;;;;;21.83;11.95;;;;;;;5.90;100.00;101059.94;5095926;28;20024;-77
2021/12/14 02:54:30;;;;;;;24.35;11.65;;;;;;;5.89;100.00;101060.84;5012634;28;20414;-77
2021/12/14 02:57:04;;;;;;;20.58;11.70;;;;;;;5.90;100.00;101069.69;5024306;28;20090;-77
2021/12/14 02:59:34;;;;;;;19.58;11.15;;;;;;;5.89;100.00;101052.88;5035526;28;20029;-77
2021/12/14 03:02:05;;;;;;;19.70;11.38;;;;;;;5.85;100.00;101072.31;5035098;28;20036;-77
2021/12/14 03:04:32;;;;;;;19.52;10.43;;;;;;;5.88;100.00;101064.34;5035304;28;20021;-77
2021/12/14 03:07:00;;;;;;;19.35;10.32;;;;;;;5.89;100.00;101062.59;5069937;23;20053;-78
2021/12/14 03:09:58;;;;;;;19.17;10.27;;;;;;;5.86;100.00;101060.81;5034301;28;20090;-79
2021/12/14 03:12:39;;;;;;;20.23;11.05;;;;;;;5.86;100.00;101074.09;5035835;28;20025;-77
2021/12/14 03:15:08;;;;;;;18.05;10.25;;;;;;;5.88;100.00;101080.25;5035057;28;20132;-76
2021/12/14 03:17:34;;;;;;;19.60;10.10;;;;;;;5.89;100.00;101090.00;5034228;28;20033;-77
2021/12/14 03:20:10;;;;;;;15.77;8.93;;;;;;;6.00;100.00;101091.78;5036996;28;20501;-77
2021/12/14 03:22:44;;;;;;;16.33;9.70;;;;;;;6.12;100.00;101106.88;5044239;28;20009;-79
2021/12/14 03:25:13;;;;;;;18.33;8.75;;;;;;;6.08;100.00;101100.66;5051950;28;20036;-79
2021/12/14 03:27:40;;;;;;;15.82;9.43;;;;;;;6.14;100.00;101094.47;5046318;28;20503;-79
2021/12/14 03:30:17;;;;;;;17.10;10.10;;;;;;;5.99;100.00;101087.34;5039481;28;20021;-79
2021/12/14 03:32:43;;;;;;;16.60;9.25;;;;;;;6.06;100.00;101083.81;5036998;28;20524;-79
2021/12/14 03:35:08;;;;;;;14.35;9.13;;;;;;;6.11;100.00;101084.75;5035886;28;20029;-78
2021/12/14 03:37:34;;;;;;;18.15;9.60;;;;;;;6.06;100.00;101090.91;5037280;28;20105;-78
2021/12/14 03:40:01;;;;;;;16.83;9.43;;;;;;;6.04;100.00;101098.84;5039805;28;20036;-78
2021/12/14 03:42:38;;;;;;;17.38;10.10;;;;;;;6.04;100.00;101093.56;5041634;28;20364;-78
2021/12/14 03:45:17;;;;;;;17.23;10.10;;;;;;;5.91;100.00;101093.53;5039438;28;20486;-78
2021/12/14 03:47:51;;;;;;;16.30;9.70;;;;;;;5.99;100.00;101090.91;5038649;28;20025;-78
2021/12/14 03:50:29;;;;;;;15.07;10.07;;;;;;;5.92;100.00;101095.31;5039773;28;20029;-78
2021/12/14 03:52:55;;;;;;;17.17;10.50;;;;;;;5.86;100.00;101103.25;5039206;28;20028;-78
2021/12/14 03:55:32;;;;;;;16.92;10.07;;;;;;;5.87;100.00;101122.69;5037143;28;20022;-77
2021/12/14 03:57:58;;;;;;;17.92;10.23;;;;;;;5.93;100.00;101105.03;5038369;28;20025;-77
2021/12/14 04:00:33;;;;;;;16.23;9.63;;;;;;;5.91;100.00;101114.75;5038850;28;20367;-78
2021/12/14 04:03:02;;;;;;;17.95;9.90;;;;;;;5.82;100.00;101112.06;5039335;28;20484;-78
2021/12/14 04:05:27;;;;;;;14.48;9.13;;;;;;;5.85;100.00;101109.41;5037002;28;20045;-78
2021/12/14 04:07:53;;;;;;;16.25;9.73;;;;;;;5.76;100.00;101104.09;5037389;28;20393;-78
2021/12/14 04:10:31;;;;;;;14.75;9.40;;;;;;;5.79;100.00;101098.81;5039157;28;20033;-78
2021/12/14 04:12:57;;;;;;;14.88;9.52;;;;;;;5.85;100.00;101100.59;5038720;28;20059;-78
2021/12/14 04:15:23;;;;;;;14.95;9.40;;;;;;;5.80;100.00;101096.16;5037761;28;20025;-78
2021/12/14 04:17:49;;;;;;;17.52;10.02;;;;;;;5.79;100.00;101104.09;5038575;28;20087;-78
2021/12/14 04:20:21;;;;;;;18.63;9.88;;;;;;;5.83;100.00;101097.91;5038558;28;20025;-78
2021/12/14 04:22:48;;;;;;;16.08;9.57;;;;;;;5.80;100.00;101085.53;5038146;28;20022;-78
2021/12/14 04:25:17;;;;;;;15.25;9.32;;;;;;;5.85;100.00;101080.25;5037431;28;20529;-78
2021/12/14 04:27:43;;;;;;;15.20;9.88;;;;;;;5.78;100.00;101070.50;5036737;28;20037;-78
2021/12/14 04:30:14;;;;;;;16.67;10.13;;;;;;;5.77;100.00;101076.72;5038956;28;20029;-78
2021/12/14 04:32:39;;;;;;;16.48;9.90;;;;;;;5.70;100.00;101067.84;5034643;28;20047;-78
2021/12/14 04:35:06;;;;;;;16.65;10.02;;;;;;;5.75;100.00;101071.41;5034196;28;20469;-77
2021/12/14 04:37:38;;;;;;;15.43;9.85;;;;;;;5.75;100.00;101075.81;5034117;28;20021;-77
2021/12/14 04:53:52;;;;;;;16.05;9.60;;;;;;;5.95;100.00;101077.63;5035208;28;20394;-78
2021/12/14 04:56:27;;;;;;;14.98;9.65;;;;;;;6.00;100.00;101076.78;5034042;28;20087;-77
2021/12/14 04:59:30;;;;;;;15.18;9.68;;;;;;;5.89;100.00;101073.19;5038041;28;20021;-78
2021/12/14 05:02:01;;;;;;;16.42;9.63;;;;;;;5.91;100.00;101067.03;4961253;28;20023;-78
2021/12/14 05:04:27;;;;;;;16.65;10.20;;;;;;;5.90;100.00;101075.84;5026985;28;20494;-78
2021/12/14 05:07:03;;;;;;;17.33;10.15;;;;;;;5.88;100.00;101074.97;5031659;28;20383;-77
2021/12/14 05:09:35;;;;;;;16.05;10.15;;;;;;;5.74;100.00;101074.94;5032979;28;20486;-77
2021/12/14 05:12:08;;;;;;;17.65;10.05;;;;;;;5.75;100.00;101081.09;5032874;28;20036;-77
2021/12/14 05:14:37;;;;;;;15.82;10.27;;;;;;;5.71;100.00;101077.59;5033046;28;20030;-77
2021/12/14 05:17:07;;;;;;;18.48;10.82;;;;;;;5.69;100.00;101074.94;5045029;23;20041;-76
2021/12/14 05:19:35;;;;;;;16.55;10.52;;;;;;;5.74;100.00;101085.53;5033381;28;20437;-76
2021/12/14 05:22:10;;;;;;;18.23;10.15;;;;;;;5.69;100.00;101090.84;5031824;28;20025;-76
2021/12/14 05:24:53;;;;;;;20.13;11.45;;;;;;;5.70;100.00;101084.63;5033387;28;20112;-76
2021/12/14 05:27:27;;;;;;;18.40;11.38;;;;;;;5.65;100.00;101081.09;5033253;28;20025;-76
2021/12/14 05:29:54;;;;;;;16.55;10.73;;;;;;;5.64;100.00;101076.69;5033101;28;20022;-76
2021/12/14 05:32:20;;;;;;;18.15;11.70;;;;;;;5.63;100.00;101076.66;5043932;22;20053;-72
2021/12/14 05:34:49;;;;;;;18.40;11.15;;;;;;;5.66;100.00;101074.03;5032785;28;20076;-73
2021/12/14 05:37:22;;;;;;;16.95;10.90;;;;;;;5.62;100.00;101070.47;5031418;28;20028;-73
2021/12/14 05:39:59;;;;;;;17.13;11.40;;;;;;;5.68;100.00;101073.16;5032944;28;20049;-72
2021/12/14 05:44:52;;;;;;;17.92;11.55;;;;;;;5.73;100.00;101061.66;5049707;28;20103;-73
2021/12/14 05:47:18;;;;;;;17.88;10.98;;;;;;;5.67;100.00;101063.41;5052603;28;20021;-73
2021/12/14 05:49:47;;;;;;;17.88;11.10;;;;;;;5.68;100.00;101067.84;5052501;28;20034;-73
2021/12/14 05:52:18;;;;;;;19.52;12.10;;;;;;;5.65;100.00;101073.13;5051575;28;20374;-73
2021/12/14 05:54:43;;;;;;;18.70;11.60;;;;;;;5.65;100.00;101070.50;5052765;28;20029;-72
2021/12/14 05:57:15;;;;;;;18.83;12.27;;;;;;;5.64;100.00;101076.69;5052351;28;20021;-73
2021/12/14 05:59:40;;;;;;;17.55;12.38;;;;;;;5.73;100.00;101081.13;5052402;28;20029;-73
2021/12/14 06:02:08;;;;;;;19.33;12.95;;;;;;;5.67;100.00;101075.81;5052447;28;20033;-72
2021/12/14 06:04:41;;;;;;;20.67;12.43;;;;;;;5.65;100.00;101064.28;5055525;28;20029;-73
2021/12/14 06:07:07;;;;;;;21.45;12.75;;;;;;;5.69;100.00;101072.28;5056155;28;20012;-73
2021/12/14 06:09:36;;;;;;;20.98;13.15;;;;;;;5.74;100.00;101074.06;5055993;28;20021;-72
2021/12/14 06:12:05;;;;;;;23.05;13.27;;;;;;;5.70;100.00;101084.63;5055964;28;20024;-73
2021/12/14 06:14:32;;;;;;;24.08;14.05;;;;;;;5.74;100.00;101074.94;5056184;28;20443;-73
2021/12/14 06:17:00;;;;;;;22.98;13.95;;;;;;;5.73;100.00;101073.16;5054571;28;20485;-72
2021/12/14 06:19:29;;;;;;;23.08;14.77;;;;;;;5.69;100.00;101071.41;5055748;28;20033;-73
2021/12/14 06:22:02;;;;;;;22.13;13.32;;;;;;;5.70;100.00;101074.03;5055755;28;20052;-72
2021/12/14 06:24:30;;;;;;;22.27;13.32;;;;;;;5.72;100.00;101073.16;5056087;28;20025;-73
2021/12/14 06:26:59;;;;;;;21.38;13.45;;;;;;;5.75;100.00;101065.19;5055591;28;20025;-73
2021/12/14 06:29:36;;;;;;;23.75;14.68;;;;;;;5.71;100.00;101066.97;5055801;28;20035;-72
2021/12/14 06:32:15;;;;;;;24.00;14.20;;;;;;;5.72;100.00;101081.13;5055693;28;20025;-73
2021/12/14 06:34:51;;;;;;;22.90;15.13;;;;;;;5.74;100.00;101079.34;5055562;28;20031;-73
2021/12/14 06:37:23;;;;;;;24.38;15.18;;;;;;;5.69;100.00;101096.13;5055444;28;20025;-72
2021/12/14 06:40:16;;;;;;;25.88;15.07;;;;;;;5.70;100.00;101097.00;5056202;28;20526;-72
2021/12/14 06:43:05;;;;;;;22.17;14.35;;;;;;;5.69;100.00;101104.09;5055170;28;20455;-72
2021/12/14 06:45:46;;;;;;;24.55;15.27;;;;;;;5.68;100.00;101101.41;5054108;28;20021;-72
2021/12/14 06:48:20;;;;;;;28.48;16.35;;;;;;;5.66;100.00;101093.47;5055061;28;20068;-72
2021/12/14 06:51:04;;;;;;;;;;;;;;;5.73;100.00;101093.47;5054335;28;20120;-72
2021/12/14 06:53:30;;;;;;;31.15;17.50;;;;;;;5.60;100.00;101093.44;5055188;28;19909;-72
2021/12/14 06:55:58;;;;;;;28.20;17.58;;;;;;;5.74;100.00;101101.44;5054824;28;20396;-72
2021/12/14 06:58:28;;;;;;;31.27;18.77;;;;;;;5.64;100.00;101100.53;5054949;28;20036;-72
2021/12/14 07:01:01;;;;;;;28.63;17.35;;;;;;;5.69;100.00;101113.78;5054974;28;20108;-72
2021/12/14 07:03:45;;;;;;;28.75;17.40;;;;;;;5.69;100.00;101111.16;5055279;28;20404;-72
2021/12/14 07:06:32;;;;;;;30.88;18.73;;;;;;;5.66;100.00;101114.66;5055048;28;20104;-72
2021/12/14 07:09:06;;;;;;;31.27;19.20;;;;;;;5.67;100.00;101121.72;5054554;28;20048;-72
2021/12/14 07:11:32;;;;;;;29.38;18.33;;;;;;;5.74;100.00;101129.72;5053606;28;20115;-72
2021/12/14 07:13:58;;;;;;;30.60;18.20;;;;;;;5.69;100.00;101135.88;5054813;28;20438;-72
2021/12/14 07:16:30;;;;;;;28.38;18.55;;;;;;;5.66;100.00;101138.50;5054674;28;20068;-72
2021/12/14 07:18:58;;;;;;;27.83;17.58;;;;;;;5.65;100.00;101144.69;5053422;28;20133;-72
2021/12/14 07:21:46;;;;;;;33.63;19.27;;;;;;;5.58;100.00;101148.19;5053411;28;20074;-72
2021/12/14 07:24:20;;;;;;;32.13;19.77;;;;;;;5.67;100.00;101145.56;5054615;28;20029;-72
2021/12/14 07:26:50;;;;;;;34.63;20.55;;;;;;;5.64;100.00;101142.94;5053203;28;20074;-72
2021/12/14 07:29:23;;;;;;;33.45;20.45;;;;;;;5.61;100.00;101142.91;5054384;28;20389;-72
2021/12/14 07:31:49;;;;;;;36.83;21.35;;;;;;;5.65;100.00;101149.97;5054672;28;20496;-72
2021/12/14 07:34:15;;;;;;;38.47;20.77;;;;;;;5.70;100.00;101136.75;5054332;28;20040;-72
2021/12/14 07:36:40;;;;;;;34.63;20.85;;;;;;;5.59;100.00;101139.38;5054256;28;20048;-72
2021/12/14 07:39:12;;;;;;;34.95;21.10;;;;;;;5.63;100.00;101135.84;5054208;28;20545;-72
2021/12/14 07:41:46;;;;;;;34.90;19.80;;;;;;;5.55;100.00;101143.75;5054239;28;20469;-72
2021/12/14 07:44:24;;;;;;;37.13;21.17;;;;;;;5.63;100.00;101145.56;5052927;28;20111;-73
2021/12/14 07:46:56;;;;;;;39.25;22.27;;;;;;;5.69;100.00;101148.25;5054433;28;20100;-72
2021/12/14 07:49:34;;;;;;;39.85;22.17;;;;;;;5.68;100.00;101149.13;5052731;28;20021;-72
2021/12/14 07:52:10;;;;;;;40.35;23.38;;;;;;;5.63;100.00;101151.75;5052790;28;20024;-72
2021/12/14 07:54:37;;;;;;;41.72;23.38;;;;;;;5.65;100.00;101149.97;5052828;28;20020;-72
2021/12/14 07:57:15;;;;;;;40.15;24.40;;;;;;;5.64;100.00;101150.88;5052641;28;20466;-72
2021/12/14 07:59:48;;;;;;;39.20;22.40;;;;;;;5.74;100.00;101153.56;5053796;28;20025;-72
2021/12/14 08:02:18;;;;;;;40.85;23.17;;;;;;;5.74;100.00;101148.25;5054120;28;20029;-72
2021/12/14 08:04:56;;;;;;;40.83;23.38;;;;;;;5.68;100.00;101144.69;5052535;28;20400;-72
2021/12/14 08:07:26;;;;;;;43.30;24.25;;;;;;;5.67;100.00;101144.72;5053816;28;20385;-72
2021/12/14 08:09:54;;;;;;;37.55;22.77;;;;;;;5.68;100.00;101152.66;5053749;28;20036;-72
2021/12/14 08:12:34;;;;;;;39.58;24.13;;;;;;;5.68;100.00;101171.19;5053656;28;20021;-72
2021/12/14 08:15:33;;;;;;;38.75;23.35;;;;;;;5.74;100.00;101169.47;5053655;28;20477;-72
2021/12/14 08:18:06;;;;;;;40.30;23.15;;;;;;;5.66;100.00;101172.06;5052301;28;20035;-72
2021/12/14 08:20:35;;;;;;;43.22;23.95;;;;;;;5.70;100.00;101165.91;5053463;28;20032;-72
2021/12/14 08:23:26;;;;;;;40.72;23.90;;;;;;;5.73;100.00;101165.03;5052441;28;20090;-72
2021/12/14 08:26:36;;;;;;;37.58;21.88;;;;;;;5.72;100.00;101168.56;5053181;28;20068;-72
2021/12/14 08:29:19;;;;;;;43.15;23.58;;;;;;;5.66;100.00;101177.38;5053376;28;20024;-72
2021/12/14 08:31:49;;;;;;;41.33;23.55;;;;;;;5.67;100.00;101164.13;5053355;28;20032;-72
2021/12/14 08:34:24;;;;;;;39.42;22.98;;;;;;;5.66;100.00;101166.78;5053290;28;20064;-72
2021/12/14 08:37:08;;;;;;;44.88;23.95;;;;;;;5.65;100.00;101173.81;5053293;28;20020;-72
2021/12/14 08:39:49;;;;;;;45.08;23.60;;;;;;;5.79;100.00;101167.72;5053250;28;20032;-72
2021/12/14 08:42:34;;;;;;;46.40;24.15;;;;;;;5.69;100.00;101173.00;5053185;28;20047;-72
2021/12/14 08:45:24;;;;;;;42.75;23.83;;;;;;;5.76;100.00;101171.25;5051993;28;20039;-72
2021/12/14 08:47:51;;;;;;;42.08;23.08;;;;;;;5.74;100.00;101178.31;5053395;28;20082;-72
2021/12/14 08:50:16;;;;;;;42.47;23.23;;;;;;;5.68;100.00;101175.59;5053117;28;20036;-72
2021/12/14 08:52:42;;;;;;;44.08;23.33;;;;;;;5.65;100.00;101181.78;5053032;28;20025;-72
2021/12/14 08:55:11;;;;;;;41.63;23.17;;;;;;;5.73;100.00;101168.56;5052989;28;20024;-72
2021/12/14 08:57:38;;;;;;;45.90;24.08;;;;;;;5.72;100.00;101160.63;5052897;28;20040;-72
2021/12/14 09:00:33;;;;;;;48.38;25.52;;;;;;;5.68;100.00;101171.19;5053065;28;20047;-73
2021/12/14 09:03:01;;;;;;;40.92;23.42;;;;;;;5.65;100.00;101168.53;5049659;28;20131;-72
2021/12/14 09:05:35;;;;;;;44.50;24.20;;;;;;;5.72;100.00;101163.28;5053051;28;20024;-72
2021/12/14 09:08:02;;;;;;;44.78;24.48;;;;;;;5.69;100.00;101173.00;5052998;28;20025;-72
2021/12/14 09:10:32;;;;;;;45.97;24.83;;;;;;;5.79;100.00;101167.72;5052964;28;20028;-72
2021/12/14 09:13:01;;;;;;;42.92;23.50;;;;;;;5.82;100.00;101178.34;5051592;28;20081;-72
2021/12/14 09:15:40;;;;;;;43.92;23.55;;;;;;;5.79;100.00;101173.91;5051555;28;20226;-72
2021/12/14 09:18:07;;;;;;;42.85;23.35;;;;;;;5.87;100.00;101181.88;5052886;28;20082;-72
2021/12/14 09:20:39;;;;;;;47.40;25.48;;;;;;;5.83;100.00;101182.75;5051565;28;20032;-72
2021/12/14 09:23:13;;;;;;;49.78;25.27;;;;;;;5.81;100.00;101182.75;5052971;28;20029;-72
2021/12/14 09:25:39;;;;;;;47.05;24.50;;;;;;;5.92;100.00;101195.16;5052788;28;20477;-72
2021/12/14 09:28:06;;;;;;;46.85;24.77;;;;;;;5.94;100.00;101193.41;5052679;28;20473;-72
2021/12/14 09:30:42;;;;;;;50.17;23.90;;;;;;;5.97;100.00;101195.16;5051481;28;20055;-72
2021/12/14 09:33:07;;;;;;;42.55;22.92;;;;;;;6.01;100.00;101205.78;5053047;28;20028;-72
2021/12/14 09:35:35;;;;;;;44.90;24.65;;;;;;;6.08;100.00;101197.91;5052639;28;20028;-72
2021/12/14 09:38:03;;;;;;;45.25;24.98;;;;;;;6.11;100.00;101200.53;5052315;28;20053;-72
2021/12/14 09:40:42;;;;;;;44.67;23.45;;;;;;;6.13;100.00;101204.97;5056563;28;20086;-72
2021/12/14 09:43:09;;;;;;;45.10;23.48;;;;;;;6.14;100.00;101209.41;5056431;28;20060;-72
2021/12/14 09:45:43;;;;;;;45.58;24.88;;;;;;;6.06;100.00;101208.44;5055252;28;20021;-72
2021/12/14 09:48:11;;;;;;;46.28;23.05;;;;;;;6.19;100.00;101204.09;5056398;28;20036;-72
2021/12/14 09:50:38;;;;;;;45.80;23.85;;;;;;;6.11;100.00;101211.16;5056358;28;20056;-72
2021/12/14 09:53:06;;;;;;;43.63;24.38;;;;;;;6.11;100.00;101206.75;5056272;28;20442;-72
2021/12/14 09:55:35;;;;;;;46.40;24.05;;;;;;;6.08;100.00;101200.56;5054962;28;20021;-72
2021/12/14 09:58:06;;;;;;;47.60;23.00;;;;;;;6.11;100.00;101204.09;5054870;28;20064;-72
2021/12/14 10:00:42;;;;;;;44.25;24.02;;;;;;;6.13;100.00;101197.00;5056173;28;20495;-72
2021/12/14 10:03:08;;;;;;;46.80;24.08;;;;;;;6.16;100.00;101193.50;5056091;28;20374;-72
2021/12/14 10:05:54;;;;;;;45.00;24.08;;;;;;;6.21;100.00;101198.84;5056102;28;20013;-72
2021/12/14 10:08:25;;;;;;;43.40;22.73;;;;;;;6.19;100.00;101189.97;5055586;28;20033;-72
2021/12/14 10:11:05;;;;;;;44.88;22.92;;;;;;;6.34;100.00;101191.78;5054727;28;20021;-72
2021/12/14 10:13:33;;;;;;;43.63;23.55;;;;;;;6.30;100.00;101185.59;5054723;28;20086;-72
2021/12/14 10:16:00;;;;;;;41.15;21.73;;;;;;;6.30;100.00;101177.63;5054561;28;20071;-72
2021/12/14 10:18:30;;;;;;;41.00;22.25;;;;;;;6.34;100.00;101179.38;5055773;28;20025;-72
2021/12/14 10:21:05;;;;;;;42.92;23.42;;;;;;;6.29;100.00;101178.50;5055711;28;20374;-72
2021/12/14 10:23:31;;;;;;;40.65;22.90;;;;;;;6.30;100.00;101185.59;5055817;28;20036;-72
2021/12/14 10:25:58;;;;;;;42.97;21.27;;;;;;;6.29;100.00;101178.50;5055681;28;20146;-72
2021/12/14 10:28:26;;;;;;;42.13;22.00;;;;;;;6.29;100.00;101173.19;5055563;28;20044;-72
2021/12/14 10:30:58;;;;;;;43.50;22.80;;;;;;;6.33;100.00;101168.78;5055799;28;20095;-72
2021/12/14 10:33:27;;;;;;;42.28;21.58;;;;;;;6.26;100.00;101178.50;5054309;28;20024;-72
2021/12/14 10:35:59;;;;;;;40.33;20.88;;;;;;;6.34;100.00;101176.72;5055376;28;20021;-72
2021/12/14 10:38:33;;;;;;;41.13;22.90;;;;;;;6.29;100.00;101177.63;5054335;28;20382;-72
2021/12/14 10:43:54;;;;;;;41.67;20.88;;;;;;;6.29;100.00;101170.53;5055619;28;20455;-72
2021/12/14 10:46:30;;;;;;;41.75;21.48;;;;;;;6.42;100.00;101181.16;5055278;28;20039;-72
2021/12/14 10:48:56;;;;;;;41.50;21.73;;;;;;;6.32;100.00;101183.81;5053575;28;20029;-72
2021/12/14 10:51:27;;;;;;;43.20;23.60;;;;;;;6.28;100.00;101176.75;5053986;28;20020;-72
2021/12/14 10:53:54;;;;;;;39.17;22.02;;;;;;;6.28;100.00;101176.75;5055206;28;20021;-72
2021/12/14 10:56:25;;;;;;;38.83;21.15;;;;;;;6.31;100.00;101170.56;5055066;28;20099;-72
2021/12/14 10:58:55;;;;;;;45.42;22.90;;;;;;;6.33;100.00;101176.75;5055033;28;20458;-72
2021/12/14 11:01:29;;;;;;;40.95;21.52;;;;;;;6.32;100.00;101173.19;5055012;28;20460;-72
2021/12/14 11:03:58;;;;;;;40.95;21.85;;;;;;;6.33;100.00;101169.69;5055058;28;20029;-72
2021/12/14 11:06:29;;;;;;;38.13;20.80;;;;;;;6.43;100.00;101175.00;5055166;28;20013;-72
2021/12/14 11:11:43;;;;;;;38.95;19.38;;;;;;;6.36;100.00;101166.16;5054816;28;20048;-72
2021/12/14 11:14:12;;;;;;;37.20;20.10;;;;;;;6.32;100.00;101165.25;5054828;28;20060;-72
2021/12/14 11:19:47;;;;;;;35.97;19.77;;;;;;;6.36;100.00;101164.38;5054883;28;20067;-72
2021/12/14 11:22:15;;;;;;;40.15;21.48;;;;;;;6.32;100.00;101159.94;5054626;28;20032;-72
2021/12/14 11:24:43;;;;;;;37.95;20.77;;;;;;;6.43;100.00;101153.75;5054501;28;20539;-72
2021/12/14 11:27:17;;;;;;;39.35;20.00;;;;;;;6.46;100.00;101148.47;5053322;28;20496;-72
2021/12/14 11:29:43;;;;;;;37.33;20.55;;;;;;;6.49;100.00;101156.44;5054707;28;20021;-72
2021/12/14 11:32:16;;;;;;;40.22;21.48;;;;;;;6.59;100.00;101155.56;5054461;28;20053;-72
2021/12/14 11:34:41;;;;;;;38.28;19.40;;;;;;;6.56;100.00;101149.34;5054458;28;20033;-72
2021/12/14 11:37:14;;;;;;;39.38;19.95;;;;;;;6.58;100.00;101152.91;5054250;28;20047;-72
2021/12/14 11:39:46;;;;;;;39.17;20.35;;;;;;;6.72;100.00;101147.59;5054252;28;20086;-72
2021/12/14 11:42:20;;;;;;;38.33;19.48;;;;;;;6.72;100.00;101144.06;5126337;22;20542;-76
2021/12/14 11:44:50;;;;;;;37.05;19.35;;;;;;;6.79;100.00;101138.75;5035586;28;20028;-76
2021/12/14 11:47:41;;;;;;;41.70;20.95;;;;;;;6.80;100.00;101150.25;5034677;28;20021;-76
2021/12/14 11:50:35;;;;;;;36.55;19.30;;;;;;;6.87;100.00;101157.31;5033974;28;20033;-76
2021/12/14 11:53:06;;;;;;;40.75;20.15;;;;;;;6.76;100.00;101154.66;5035983;28;20025;-76
2021/12/14 11:55:50;;;;;;;40.40;20.95;;;;;;;6.72;100.00;101152.91;5035350;28;20029;-75
2021/12/14 11:58:37;;;;;;;45.28;19.75;;;;;;;6.69;100.00;101155.56;5039209;28;20036;-75
2021/12/14 12:01:10;;;;;;;38.08;19.58;;;;;;;6.75;100.00;101152.88;5037921;28;20033;-76
2021/12/14 12:03:40;;;;;;;37.13;19.85;;;;;;;6.74;100.00;101151.13;5037982;28;20013;-76
2021/12/14 12:09:28;;;;;;;37.00;19.17;;;;;;;6.75;100.00;101160.84;5037557;28;20055;-75
2021/12/14 12:09:41;;;;;;;36.47;18.92;;;;;;;6.73;100.00;101151.13;5036564;28;20036;-76